createdAt,value
2023-03-20T00:01:32.270Z,27.50
2023-03-20T00:04:01.514Z,24.85
2023-03-20T00:06:30.456Z,23.30
2023-03-20T00:08:59.409Z,22.33
2023-03-20T00:11:41.226Z,22.05
2023-03-20T00:14:12.611Z,26.20
2023-03-20T00:16:43.867Z,28.23
2023-03-20T00:19:17.548Z,27.55
2023-03-20T00:21:47.937Z,26.95
2023-03-20T00:24:17.369Z,26.08
2023-03-20T00:26:49.451Z,26.15
2023-03-20T00:29:22.864Z,26.92
2023-03-20T00:31:52.124Z,24.65
2023-03-20T00:34:23.587Z,24.25
2023-03-20T00:36:52.542Z,25.15
2023-03-20T00:39:21.940Z,27.27
2023-03-20T00:41:54.229Z,25.55
2023-03-20T00:44:25.434Z,27.17
2023-03-20T00:46:57.171Z,27.02
2023-03-20T00:49:28.877Z,28.65
2023-03-20T00:51:58.225Z,29.30
2023-03-20T00:54:27.471Z,25.58
2023-03-20T00:57:02.046Z,23.33
2023-03-20T00:59:34.533Z,27.98
2023-03-20T01:02:03.657Z,26.38
2023-03-20T01:04:37.838Z,26.02
2023-03-20T01:07:07.816Z,30.83
2023-03-20T01:09:36.638Z,29.98
2023-03-20T01:12:07.802Z,30.10
2023-03-20T01:14:36.426Z,34.58
2023-03-20T01:17:05.301Z,35.13
2023-03-20T01:19:33.851Z,32.90
2023-03-20T01:22:03.115Z,33.90
2023-03-20T01:24:31.846Z,33.70
2023-03-20T01:27:03.663Z,34.15
2023-03-20T01:29:34.057Z,35.08
2023-03-20T01:32:02.858Z,34.55
2023-03-20T01:34:31.472Z,35.13
2023-03-20T01:37:00.748Z,36.80
2023-03-20T01:39:34.533Z,34.08
2023-03-20T01:42:05.861Z,34.20
2023-03-20T01:44:37.646Z,32.17
2023-03-20T01:47:16.446Z,31.35
2023-03-20T01:50:22.236Z,32.55
2023-03-20T01:52:55.819Z,31.05
2023-03-20T01:55:25.030Z,30.50
2023-03-20T01:57:55.793Z,29.17
2023-03-20T02:00:25.787Z,29.90
2023-03-20T02:02:54.922Z,30.48
2023-03-20T02:05:24.253Z,30.00
2023-03-20T02:08:02.593Z,32.55
2023-03-20T02:10:32.126Z,31.30
2023-03-20T02:13:02.962Z,30.45
2023-03-20T02:15:33.837Z,31.70
2023-03-20T02:18:02.679Z,33.15
2023-03-20T02:20:47.152Z,33.25
2023-03-20T02:23:51.817Z,32.13
2023-03-20T02:26:38.384Z,35.22
2023-03-20T02:29:45.544Z,36.40
2023-03-20T02:33:06.113Z,35.92
2023-03-20T02:36:16.447Z,34.15
2023-03-20T02:39:14.816Z,34.72
2023-03-20T02:41:53.086Z,36.90
2023-03-20T02:44:26.830Z,34.45
2023-03-20T02:47:02.386Z,34.30
2023-03-20T02:49:48.299Z,34.85
2023-03-20T02:52:21.323Z,34.85
2023-03-20T02:54:58.258Z,33.15
2023-03-20T02:57:38.063Z,35.08
2023-03-20T03:02:41.755Z,37.63
2023-03-20T03:05:15.074Z,36.45
2023-03-20T03:07:46.949Z,39.35
2023-03-20T03:10:20.925Z,37.38
2023-03-20T03:12:53.179Z,37.15
2023-03-20T03:15:27.732Z,38.20
2023-03-20T03:17:58.232Z,39.33
2023-03-20T03:20:30.820Z,38.70
2023-03-20T03:22:59.922Z,38.58
2023-03-20T03:25:31.433Z,39.25
2023-03-20T03:28:05.720Z,39.38
2023-03-20T03:30:38.535Z,42.30
2023-03-20T03:33:17.112Z,41.10
2023-03-20T03:35:46.991Z,39.53
2023-03-20T03:41:07.783Z,37.55
2023-03-20T03:43:44.500Z,37.88
2023-03-20T03:46:18.264Z,37.92
2023-03-20T03:48:51.670Z,36.60
2023-03-20T03:51:25.592Z,39.33
2023-03-20T03:54:00.717Z,37.75
2023-03-20T03:56:32.655Z,37.92
2023-03-20T03:59:06.398Z,38.88
2023-03-20T04:01:36.498Z,39.58
2023-03-20T04:04:08.111Z,39.22
2023-03-20T04:06:36.891Z,38.20
2023-03-20T04:09:05.562Z,37.15
2023-03-20T04:11:35.762Z,37.50
2023-03-20T04:14:05.678Z,39.75
2023-03-20T04:16:34.107Z,38.70
2023-03-20T04:19:02.599Z,38.55
2023-03-20T04:21:31.159Z,39.03
2023-03-20T04:23:59.586Z,41.10
2023-03-20T04:26:28.306Z,40.55
2023-03-20T04:28:57.275Z,39.33
2023-03-20T04:31:28.575Z,40.73
2023-03-20T04:33:57.057Z,39.80
2023-03-20T04:36:25.818Z,37.35
2023-03-20T04:38:57.122Z,38.15
2023-03-20T04:41:26.636Z,41.15
2023-03-20T04:43:55.133Z,37.50
2023-03-20T04:46:24.236Z,36.85
2023-03-20T04:48:54.358Z,39.83
2023-03-20T04:51:22.872Z,40.15
2023-03-20T04:53:51.397Z,36.92
2023-03-20T04:56:19.825Z,35.28
2023-03-20T04:58:48.665Z,34.17
2023-03-20T05:01:17.285Z,36.20
2023-03-20T05:03:46.374Z,34.50
2023-03-20T05:06:16.655Z,38.50
2023-03-20T05:08:45.212Z,38.20
2023-03-20T05:11:13.620Z,36.72
2023-03-20T05:13:42.096Z,35.33
2023-03-20T05:16:11.020Z,35.78
2023-03-20T05:18:39.509Z,33.50
2023-03-20T05:21:09.121Z,35.53
2023-03-20T05:23:38.931Z,34.95
2023-03-20T05:28:36.433Z,35.15
2023-03-20T05:31:05.468Z,36.92
2023-03-20T05:33:36.229Z,38.63
2023-03-20T05:36:07.874Z,38.67
2023-03-20T05:38:36.746Z,46.58
2023-03-20T05:41:07.328Z,45.83
2023-03-20T05:43:35.993Z,47.15
2023-03-20T05:46:04.572Z,53.83
2023-03-20T05:48:33.311Z,63.58
2023-03-20T05:51:02.054Z,76.30
2023-03-20T05:53:31.007Z,74.15
2023-03-20T05:55:59.923Z,64.90
2023-03-20T05:58:30.020Z,65.78
2023-03-20T06:00:59.053Z,63.38
2023-03-20T06:03:27.918Z,59.47
2023-03-20T06:05:56.747Z,65.57
2023-03-20T06:08:25.708Z,60.75
2023-03-20T06:10:54.191Z,52.40
2023-03-20T06:13:22.661Z,47.30
2023-03-20T06:15:53.122Z,29.25
2023-03-20T06:18:21.611Z,13.32
2023-03-20T06:20:53.997Z,10.30
2023-03-20T06:23:22.457Z,10.15
2023-03-20T06:25:51.343Z,8.82
2023-03-20T06:28:19.753Z,9.15
2023-03-20T06:30:48.440Z,7.95
2023-03-20T06:33:18.450Z,7.80
2023-03-20T06:35:48.376Z,8.40
2023-03-20T06:40:45.175Z,7.07
2023-03-20T06:43:13.637Z,7.32
2023-03-20T06:45:42.364Z,7.53
2023-03-20T06:48:11.199Z,6.78
2023-03-20T06:50:41.423Z,6.75
2023-03-20T06:53:09.919Z,7.22
2023-03-20T06:55:38.773Z,6.50
2023-03-20T06:58:07.781Z,6.87
2023-03-20T07:00:36.276Z,6.70
2023-03-20T07:03:05.124Z,6.53
2023-03-20T07:05:33.950Z,6.90
2023-03-20T07:08:04.220Z,6.80
2023-03-20T07:10:33.131Z,6.40
2023-03-20T07:13:01.936Z,6.65
2023-03-20T07:15:30.914Z,6.82
2023-03-20T07:17:59.481Z,6.50
2023-03-20T07:20:28.133Z,6.65
2023-03-20T07:22:56.530Z,6.28
2023-03-20T07:25:41.263Z,6.20
2023-03-20T07:28:10.661Z,5.93
2023-03-20T07:30:39.069Z,5.95
2023-03-20T07:33:07.830Z,6.40
2023-03-20T07:35:36.987Z,5.70
2023-03-20T07:38:05.679Z,5.72
2023-03-20T07:40:35.613Z,6.55
2023-03-20T07:43:04.062Z,5.82
2023-03-20T07:45:32.800Z,6.28
2023-03-20T07:48:01.791Z,5.80
2023-03-20T07:50:30.203Z,5.67
2023-03-20T07:52:58.902Z,5.93
2023-03-20T07:55:27.414Z,6.50
2023-03-20T07:57:57.229Z,6.15
2023-03-20T08:02:58.213Z,5.57
2023-03-20T08:05:27.327Z,6.40
2023-03-20T08:07:56.124Z,5.93
2023-03-20T08:10:25.539Z,6.20
2023-03-20T08:12:54.039Z,5.72
2023-03-20T08:15:23.910Z,6.38
2023-03-20T08:20:21.824Z,6.30
2023-03-20T08:22:50.398Z,6.20
2023-03-20T08:25:19.041Z,6.22
2023-03-20T08:27:47.540Z,6.20
2023-03-20T08:30:16.922Z,6.32
2023-03-20T08:32:47.056Z,6.93
2023-03-20T08:35:31.529Z,6.18
2023-03-20T08:38:01.137Z,6.45
2023-03-20T08:40:29.863Z,6.38
2023-03-20T08:42:58.867Z,6.47
2023-03-20T08:45:27.751Z,6.35
2023-03-20T08:47:57.506Z,6.47
2023-03-20T08:50:26.165Z,6.70
2023-03-20T08:52:54.603Z,6.18
2023-03-20T08:55:23.177Z,6.82
2023-03-20T08:57:51.826Z,6.40
2023-03-20T09:00:20.737Z,6.50
2023-03-20T09:02:49.495Z,6.15
2023-03-20T09:05:19.421Z,6.15
2023-03-20T09:10:16.004Z,6.53
2023-03-20T09:12:44.766Z,6.60
2023-03-20T09:15:13.417Z,6.80
2023-03-20T09:17:41.840Z,5.85
2023-03-20T09:20:11.371Z,5.90
2023-03-20T09:22:43.739Z,6.40
2023-03-20T09:25:13.063Z,6.13
2023-03-20T09:27:41.655Z,5.88
2023-03-20T09:30:12.114Z,6.07
2023-03-20T09:32:40.600Z,6.30
2023-03-20T09:35:09.587Z,5.75
2023-03-20T09:37:38.031Z,6.07
2023-03-20T09:40:09.877Z,6.00
2023-03-20T09:42:48.715Z,6.63
2023-03-20T09:45:25.909Z,5.55
2023-03-20T09:48:05.645Z,5.30
2023-03-20T09:50:38.679Z,5.53
2023-03-20T09:53:12.778Z,5.50
2023-03-20T09:55:44.154Z,5.97
2023-03-20T09:58:17.418Z,6.88
2023-03-20T10:00:47.667Z,6.63
2023-03-20T10:03:21.821Z,6.43
2023-03-20T10:05:57.183Z,6.07
2023-03-20T10:08:29.794Z,6.80
2023-03-20T10:11:11.392Z,7.18
2023-03-20T10:14:00.644Z,6.45
2023-03-20T10:16:42.215Z,6.82
2023-03-20T10:19:21.766Z,7.07
2023-03-20T10:21:53.955Z,7.45
2023-03-20T10:24:29.414Z,8.30
2023-03-20T10:27:05.316Z,8.18
2023-03-20T10:29:44.514Z,7.63
2023-03-20T10:32:19.235Z,9.23
2023-03-20T10:34:56.759Z,8.65
2023-03-20T10:37:36.302Z,9.50
2023-03-20T10:40:21.255Z,10.30
2023-03-20T10:42:54.040Z,11.55
2023-03-20T10:45:37.684Z,11.75
2023-03-20T10:48:11.988Z,12.77
2023-03-20T10:50:44.893Z,12.77
2023-03-20T10:53:27.687Z,13.23
2023-03-20T10:56:00.009Z,13.48
2023-03-20T10:58:32.909Z,13.48
2023-03-20T11:01:02.822Z,14.18
2023-03-20T11:03:34.423Z,13.13
2023-03-20T11:06:09.945Z,14.60
2023-03-20T11:08:41.806Z,15.35
2023-03-20T11:11:11.145Z,13.77
2023-03-20T11:13:43.683Z,14.77
2023-03-20T11:16:20.345Z,14.18
2023-03-20T11:18:50.392Z,16.33
2023-03-20T11:21:22.689Z,16.13
2023-03-20T11:23:51.922Z,16.40
2023-03-20T11:26:28.900Z,17.25
2023-03-20T11:29:01.132Z,17.45
2023-03-20T11:31:35.392Z,16.42
2023-03-20T11:34:12.687Z,16.48
2023-03-20T11:37:09.285Z,15.75
2023-03-20T11:39:39.993Z,16.95
2023-03-20T11:42:25.435Z,17.42
2023-03-20T11:45:03.464Z,16.73
2023-03-20T11:47:35.676Z,17.67
2023-03-20T11:50:07.190Z,18.00
2023-03-20T11:52:38.219Z,18.45
2023-03-20T11:55:23.475Z,19.65
2023-03-20T11:57:52.201Z,22.67
2023-03-20T12:00:26.275Z,25.13
2023-03-20T12:02:54.868Z,24.95
2023-03-20T12:05:33.528Z,26.88
2023-03-20T12:08:06.442Z,29.02
2023-03-20T12:10:39.474Z,30.67
2023-03-20T12:13:14.845Z,32.83
2023-03-20T12:15:48.833Z,32.00
2023-03-20T12:18:26.154Z,32.33
2023-03-20T12:21:05.442Z,31.67
2023-03-20T12:23:38.713Z,33.17
2023-03-20T12:26:12.640Z,33.75
2023-03-20T12:28:47.587Z,34.42
2023-03-20T12:31:25.911Z,34.65
2023-03-20T12:34:01.243Z,35.63
2023-03-20T12:36:34.009Z,35.20
2023-03-20T12:39:04.529Z,33.78
2023-03-20T12:41:41.224Z,29.65
2023-03-20T12:44:31.083Z,29.17
2023-03-20T12:49:46.511Z,26.75
2023-03-20T12:52:23.622Z,25.63
2023-03-20T12:55:14.031Z,26.60
2023-03-20T12:57:54.196Z,26.52
2023-03-20T13:00:32.076Z,24.55
2023-03-20T13:03:14.647Z,23.38
2023-03-20T13:05:48.399Z,22.17
2023-03-20T13:08:39.781Z,23.20
2023-03-20T13:11:17.185Z,24.73
2023-03-20T13:13:53.469Z,24.08
2023-03-20T13:16:29.367Z,23.63
2023-03-20T13:19:07.917Z,24.05
2023-03-20T13:21:43.317Z,23.02
2023-03-20T13:24:23.646Z,23.77
2023-03-20T13:27:01.082Z,24.77
2023-03-20T13:29:38.972Z,25.02
2023-03-20T13:32:15.161Z,42.25
2023-03-20T13:35:00.512Z,27.23
2023-03-20T13:37:35.871Z,25.75
2023-03-20T13:40:15.376Z,25.35
2023-03-20T13:42:48.903Z,25.73
2023-03-20T13:45:28.437Z,25.63
2023-03-20T13:48:01.410Z,26.95
2023-03-20T13:50:43.376Z,27.17
2023-03-20T13:53:23.117Z,25.83
2023-03-20T13:55:58.194Z,24.05
2023-03-20T13:58:56.777Z,23.65
2023-03-20T14:01:35.537Z,23.95
2023-03-20T14:04:05.217Z,25.10
2023-03-20T14:06:52.146Z,25.33
2023-03-20T14:09:32.855Z,25.40
2023-03-20T14:12:07.714Z,25.88
2023-03-20T14:14:43.707Z,27.90
2023-03-20T14:17:19.079Z,27.00
2023-03-20T14:19:48.682Z,27.25
2023-03-20T14:22:21.336Z,25.92
2023-03-20T14:24:55.984Z,27.45
2023-03-20T14:27:42.720Z,25.42
2023-03-20T14:30:41.851Z,28.30
2023-03-20T14:33:26.969Z,26.33
2023-03-20T14:36:20.736Z,27.27
2023-03-20T14:38:58.884Z,25.90
2023-03-20T14:41:34.646Z,28.73
2023-03-20T14:44:16.387Z,27.10
2023-03-20T14:46:52.619Z,28.58
2023-03-20T14:49:51.717Z,27.13
2023-03-20T14:52:31.529Z,26.43
2023-03-20T14:55:27.618Z,27.50
2023-03-20T14:57:57.493Z,27.40
2023-03-20T15:00:28.377Z,24.60
2023-03-20T15:03:06.498Z,25.92
2023-03-20T15:05:37.372Z,25.35
2023-03-20T15:08:08.861Z,26.40
2023-03-20T15:10:47.176Z,26.13
2023-03-20T15:13:17.494Z,26.27
2023-03-20T15:15:55.818Z,25.65
2023-03-20T15:18:26.175Z,25.38
2023-03-20T15:20:57.501Z,26.08
2023-03-20T15:23:27.335Z,26.38
2023-03-20T15:28:27.419Z,25.15
2023-03-20T15:30:59.480Z,25.48
2023-03-20T15:33:30.277Z,25.48
2023-03-20T15:35:59.144Z,26.30
2023-03-20T15:38:34.297Z,27.10
2023-03-20T15:41:07.919Z,27.70
2023-03-20T15:43:38.272Z,27.70
2023-03-20T15:46:18.078Z,26.90
2023-03-20T15:48:50.637Z,26.77
2023-03-20T15:51:20.711Z,26.13
2023-03-20T15:53:50.073Z,25.67
2023-03-20T15:56:26.020Z,28.17
2023-03-20T15:58:56.656Z,26.17
2023-03-20T16:01:26.758Z,25.60
2023-03-20T16:04:00.164Z,25.05
2023-03-20T16:06:29.375Z,24.95
2023-03-20T16:09:00.821Z,25.10
2023-03-20T16:11:39.251Z,24.75
2023-03-20T16:14:09.029Z,25.02
2023-03-20T16:16:38.349Z,25.70
2023-03-20T16:19:07.645Z,25.08
2023-03-20T16:21:40.714Z,27.73
2023-03-20T16:24:15.930Z,28.55
2023-03-20T16:26:49.230Z,27.35
2023-03-20T16:29:19.392Z,28.83
2023-03-20T16:31:57.583Z,30.08
2023-03-20T16:34:31.935Z,30.35
2023-03-20T16:37:03.001Z,29.23
2023-03-20T16:39:32.209Z,28.98
2023-03-20T16:42:17.876Z,28.60
2023-03-20T16:44:46.363Z,28.67
2023-03-20T16:47:22.375Z,29.75
2023-03-20T16:50:18.755Z,30.00
2023-03-20T16:52:50.226Z,28.58
2023-03-20T16:55:25.576Z,31.50
2023-03-20T16:57:58.433Z,31.23
2023-03-20T17:00:31.995Z,29.15
2023-03-20T17:03:12.921Z,30.67
2023-03-20T17:06:00.841Z,30.20
2023-03-20T17:08:34.801Z,30.58
2023-03-20T17:11:10.369Z,30.42
2023-03-20T17:13:41.156Z,30.67
2023-03-20T17:16:13.140Z,29.27
2023-03-20T17:18:41.659Z,29.30
2023-03-20T17:21:11.364Z,29.27
2023-03-20T17:23:40.810Z,28.25
2023-03-20T17:26:12.018Z,27.52
2023-03-20T17:28:42.465Z,28.90
2023-03-20T17:31:13.988Z,28.48
2023-03-20T17:33:43.362Z,29.10
2023-03-20T17:36:17.028Z,29.45
2023-03-20T17:38:45.891Z,30.40
2023-03-20T17:41:15.585Z,30.67
2023-03-20T17:43:45.853Z,33.05
2023-03-20T17:46:19.672Z,33.08
2023-03-20T17:48:49.115Z,31.75
2023-03-20T17:51:17.650Z,32.85
2023-03-20T17:53:46.053Z,30.67
2023-03-20T17:56:16.048Z,31.50
2023-03-20T17:58:45.862Z,31.65
2023-03-20T18:03:43.586Z,28.98
2023-03-20T18:06:21.915Z,31.57
2023-03-20T18:08:50.362Z,25.92
2023-03-20T18:11:18.758Z,27.80
2023-03-20T18:13:48.618Z,27.77
2023-03-20T18:18:46.902Z,25.92
2023-03-20T18:21:16.756Z,26.38
2023-03-20T18:26:20.492Z,25.60
2023-03-20T18:28:51.713Z,25.40
2023-03-20T18:31:20.653Z,24.58
2023-03-20T18:33:50.607Z,25.40
2023-03-20T18:38:49.721Z,24.80
2023-03-20T18:41:18.704Z,25.80
2023-03-20T18:43:48.349Z,26.15
2023-03-20T18:46:20.109Z,26.15
2023-03-20T18:48:49.318Z,25.90
2023-03-20T18:51:17.815Z,25.10
2023-03-20T18:53:46.815Z,24.75
2023-03-20T18:56:17.386Z,25.13
2023-03-20T18:58:49.598Z,25.80
2023-03-20T19:01:20.371Z,23.98
2023-03-20T19:03:49.773Z,25.55
2023-03-20T19:06:19.913Z,25.05
2023-03-20T19:08:49.388Z,25.63
2023-03-20T19:11:21.408Z,26.77
2023-03-20T19:13:52.176Z,24.17
2023-03-20T19:16:24.732Z,27.27
2023-03-20T19:18:53.763Z,24.88
2023-03-20T19:21:26.007Z,26.80
2023-03-20T19:23:56.575Z,25.63
2023-03-20T19:26:26.552Z,25.00
2023-03-20T19:28:56.013Z,24.02
2023-03-20T19:31:26.597Z,25.42
2023-03-20T19:33:55.997Z,25.17
2023-03-20T19:36:27.728Z,24.35
2023-03-20T19:38:57.228Z,23.77
2023-03-20T19:41:27.774Z,25.00
2023-03-20T19:43:57.862Z,22.40
2023-03-20T19:46:44.068Z,23.77
2023-03-20T19:49:19.445Z,24.95
2023-03-20T19:51:49.505Z,27.25
2023-03-20T19:54:18.081Z,26.13
2023-03-20T19:56:46.490Z,26.55
2023-03-20T19:59:16.850Z,28.63
2023-03-20T20:01:47.314Z,30.92
2023-03-20T20:04:16.046Z,31.25
2023-03-20T20:06:47.334Z,31.30
2023-03-20T20:09:16.627Z,29.40
2023-03-20T20:11:45.174Z,26.97
2023-03-20T20:14:15.185Z,26.95
2023-03-20T20:16:45.698Z,25.23
2023-03-20T20:19:15.717Z,24.13
2023-03-20T20:24:32.228Z,21.40
2023-03-20T20:27:15.877Z,21.25
2023-03-20T20:29:48.063Z,21.45
2023-03-20T20:32:16.615Z,21.45
2023-03-20T20:38:30.489Z,22.63
2023-03-20T20:42:56.294Z,22.10
2023-03-20T20:45:27.028Z,21.20
2023-03-20T20:47:55.873Z,20.67
2023-03-20T20:50:29.001Z,21.85
2023-03-20T20:52:58.946Z,21.00
2023-03-20T20:55:27.546Z,20.38
2023-03-20T20:57:56.535Z,21.85
2023-03-20T21:00:40.970Z,23.58
2023-03-20T21:03:14.555Z,19.85
2023-03-20T21:05:44.569Z,18.45
2023-03-20T21:08:14.039Z,19.25
2023-03-20T21:10:42.945Z,19.08
2023-03-20T21:13:11.477Z,18.80
2023-03-20T21:15:40.984Z,19.48
2023-03-20T21:18:09.996Z,19.65
2023-03-20T21:20:38.487Z,18.55
2023-03-20T21:23:08.384Z,19.27
2023-03-20T21:28:10.026Z,17.60
2023-03-20T21:30:49.979Z,18.15
2023-03-20T21:33:30.505Z,19.25
2023-03-20T21:35:59.207Z,18.35
2023-03-20T21:39:02.142Z,17.25
2023-03-20T21:41:18.795Z,16.42
2023-03-20T21:43:47.574Z,16.70
2023-03-20T21:46:52.582Z,16.35
2023-03-20T21:49:58.481Z,16.02
2023-03-20T22:01:23.217Z,16.52
2023-03-20T22:03:28.906Z,16.58
2023-03-20T22:12:27.807Z,15.88
2023-03-20T22:17:56.130Z,16.48
2023-03-20T22:32:11.030Z,19.67
2023-03-20T22:35:01.282Z,19.75
2023-03-20T22:43:09.557Z,19.10
2023-03-20T22:45:43.227Z,18.58
2023-03-20T22:48:16.313Z,17.33
2023-03-20T22:50:45.085Z,18.67
2023-03-20T22:53:13.488Z,18.83
2023-03-20T22:55:44.356Z,21.35
2023-03-20T22:58:12.992Z,20.88
2023-03-20T23:00:43.268Z,22.15
2023-03-20T23:03:29.609Z,22.13
2023-03-20T23:06:07.654Z,21.88
2023-03-20T23:08:48.091Z,22.05
2023-03-20T23:11:21.144Z,22.40
2023-03-20T23:13:49.754Z,21.07
2023-03-20T23:16:19.981Z,22.38
2023-03-20T23:18:48.811Z,23.15
2023-03-20T23:21:17.693Z,23.08
2023-03-20T23:23:46.297Z,24.48
2023-03-20T23:26:16.973Z,24.05
2023-03-20T23:28:47.749Z,26.02
2023-03-20T23:31:18.116Z,25.80
2023-03-20T23:33:50.913Z,26.25
2023-03-20T23:36:34.873Z,25.83
2023-03-20T23:39:04.476Z,25.70
2023-03-20T23:41:57.951Z,25.08
2023-03-20T23:44:21.273Z,25.30
2023-03-20T23:46:49.874Z,26.00
2023-03-20T23:49:19.629Z,25.10
2023-03-20T23:51:48.454Z,24.70
2023-03-20T23:54:17.337Z,27.40
2023-03-20T23:56:45.771Z,24.58
2023-03-20T23:59:21.624Z,26.50
